createdAt,value
2019-02-24T00:00:36.075Z,4.15
2019-02-24T00:01:44.091Z,4.10
2019-02-24T00:02:46.777Z,4.05
2019-02-24T00:03:49.426Z,4.33
2019-02-24T00:04:52.192Z,3.95
2019-02-24T00:05:54.710Z,4.05
2019-02-24T00:06:58.602Z,4.47
2019-02-24T00:08:01.250Z,5.05
2019-02-24T00:09:04.871Z,3.72
2019-02-24T00:10:07.444Z,4.33
2019-02-24T00:11:09.988Z,3.40
2019-02-24T00:12:12.754Z,3.80
2019-02-24T00:13:15.329Z,3.83
2019-02-24T00:14:17.987Z,4.45
2019-02-24T00:15:20.576Z,3.58
2019-02-24T00:16:23.380Z,3.65
2019-02-24T00:17:26.174Z,3.95
2019-02-24T00:18:28.716Z,4.28
2019-02-24T00:19:31.386Z,4.25
2019-02-24T00:20:35.031Z,4.20
2019-02-24T00:21:37.602Z,4.08
2019-02-24T00:22:40.143Z,3.85
2019-02-24T00:23:42.728Z,4.30
2019-02-24T00:24:45.269Z,4.20
2019-02-24T00:25:47.836Z,3.47
2019-02-24T00:26:53.900Z,3.62
2019-02-24T00:27:56.543Z,3.62
2019-02-24T00:28:59.088Z,3.92
2019-02-24T00:30:01.860Z,4.22
2019-02-24T00:31:04.456Z,4.12
2019-02-24T00:32:07.208Z,3.90
2019-02-24T00:33:09.930Z,4.00
2019-02-24T00:34:13.575Z,4.22
2019-02-24T00:35:16.106Z,4.28
2019-02-24T00:36:18.760Z,4.17
2019-02-24T00:37:21.475Z,4.20
2019-02-24T00:38:24.162Z,4.72
2019-02-24T00:39:26.985Z,4.53
2019-02-24T00:40:29.673Z,4.17
2019-02-24T00:41:32.316Z,4.37
2019-02-24T00:42:34.833Z,3.67
2019-02-24T00:43:37.480Z,4.33
2019-02-24T00:44:41.481Z,3.80
2019-02-24T00:45:44.317Z,3.95
2019-02-24T00:46:48.570Z,4.15
2019-02-24T00:47:51.195Z,4.28
2019-02-24T00:48:53.968Z,3.40
2019-02-24T00:49:56.621Z,3.58
2019-02-24T00:50:59.279Z,3.85
2019-02-24T00:52:02.238Z,4.20
2019-02-24T00:53:05.063Z,4.17
2019-02-24T00:54:07.589Z,4.70
2019-02-24T00:55:10.504Z,4.33
2019-02-24T00:56:14.708Z,4.15
2019-02-24T00:57:17.249Z,4.00
2019-02-24T00:58:19.794Z,4.40
2019-02-24T00:59:22.589Z,4.42
2019-02-24T01:00:25.242Z,3.87
2019-02-24T01:01:28.310Z,4.12
2019-02-24T01:02:30.847Z,4.00
2019-02-24T01:03:33.783Z,4.55
2019-02-24T01:04:36.408Z,4.08
2019-02-24T01:05:39.145Z,4.05
2019-02-24T01:06:42.809Z,3.90
2019-02-24T01:07:45.737Z,3.62
2019-02-24T01:08:48.507Z,4.12
2019-02-24T01:09:51.167Z,4.05
2019-02-24T01:10:54.078Z,3.72
2019-02-24T01:11:56.730Z,3.98
2019-02-24T01:12:59.493Z,3.92
2019-02-24T01:14:02.462Z,5.17
2019-02-24T01:15:05.947Z,4.47
2019-02-24T01:16:08.474Z,3.85
2019-02-24T01:17:12.825Z,4.22
2019-02-24T01:18:15.419Z,4.33
2019-02-24T01:19:18.139Z,4.45
2019-02-24T01:20:20.691Z,4.10
2019-02-24T01:21:23.319Z,4.53
2019-02-24T01:22:26.068Z,4.30
2019-02-24T01:23:28.642Z,4.30
2019-02-24T01:24:31.169Z,4.10
2019-02-24T01:25:33.918Z,3.80
2019-02-24T01:26:36.505Z,3.30
2019-02-24T01:27:39.271Z,4.00
2019-02-24T01:28:41.814Z,4.15
2019-02-24T01:29:44.569Z,3.83
2019-02-24T01:30:47.115Z,4.03
2019-02-24T01:31:52.087Z,3.72
2019-02-24T01:32:54.822Z,4.20
2019-02-24T01:33:57.617Z,3.62
2019-02-24T01:35:00.421Z,4.47
2019-02-24T01:36:03.175Z,3.80
2019-02-24T01:37:05.963Z,4.55
2019-02-24T01:38:08.582Z,4.40
2019-02-24T01:39:11.131Z,4.25
2019-02-24T01:40:13.704Z,4.35
2019-02-24T01:41:16.587Z,3.67
2019-02-24T01:42:19.211Z,4.05
2019-02-24T01:43:21.778Z,4.00
2019-02-24T01:44:24.375Z,4.03
2019-02-24T01:45:26.942Z,4.03
2019-02-24T01:46:29.670Z,3.80
2019-02-24T01:47:32.319Z,4.28
2019-02-24T01:48:34.826Z,3.50
2019-02-24T01:49:37.595Z,4.35
2019-02-24T01:50:40.158Z,3.58
2019-02-24T01:51:42.679Z,4.25
2019-02-24T01:52:45.212Z,3.55
2019-02-24T01:53:47.948Z,4.05
2019-02-24T01:54:50.519Z,3.65
2019-02-24T01:55:53.172Z,3.58
2019-02-24T01:56:55.830Z,4.28
2019-02-24T01:57:58.369Z,3.92
2019-02-24T01:59:01.040Z,4.08
2019-02-24T02:00:04.115Z,3.87
2019-02-24T02:01:06.950Z,3.95
2019-02-24T02:02:09.536Z,3.90
2019-02-24T02:03:12.231Z,4.37
2019-02-24T02:04:14.827Z,3.90
2019-02-24T02:05:17.380Z,3.70
2019-02-24T02:06:19.926Z,3.47
2019-02-24T02:07:22.760Z,3.75
2019-02-24T02:08:25.405Z,3.80
2019-02-24T02:09:28.033Z,4.25
2019-02-24T02:10:32.410Z,3.80
2019-02-24T02:11:35.017Z,4.17
2019-02-24T02:12:37.651Z,3.52
2019-02-24T02:13:40.292Z,4.17
2019-02-24T02:14:42.811Z,3.47
2019-02-24T02:15:45.366Z,4.28
2019-02-24T02:16:48.103Z,4.17
2019-02-24T02:17:50.742Z,4.62
2019-02-24T02:18:53.515Z,3.92
2019-02-24T02:19:56.050Z,3.20
2019-02-24T02:20:58.938Z,4.30
2019-02-24T02:22:01.580Z,4.03
2019-02-24T02:23:04.366Z,3.95
2019-02-24T02:24:06.847Z,4.08
2019-02-24T02:25:11.453Z,3.90
2019-02-24T02:26:14.011Z,3.67
2019-02-24T02:27:16.537Z,4.50
2019-02-24T02:28:19.134Z,3.85
2019-02-24T02:29:21.772Z,4.05
2019-02-24T02:30:24.516Z,3.77
2019-02-24T02:31:27.126Z,4.80
2019-02-24T02:32:29.631Z,4.03
2019-02-24T02:33:33.395Z,3.72
2019-02-24T02:34:36.043Z,3.90
2019-02-24T02:35:39.904Z,3.98
2019-02-24T02:36:42.610Z,3.42
2019-02-24T02:37:45.271Z,3.77
2019-02-24T02:38:49.132Z,3.92
2019-02-24T02:39:51.762Z,4.17
2019-02-24T02:40:54.399Z,3.65
2019-02-24T02:41:57.173Z,4.30
2019-02-24T02:42:59.801Z,3.92
2019-02-24T02:44:02.472Z,4.45
2019-02-24T02:45:05.914Z,4.50
2019-02-24T02:46:08.469Z,4.05
2019-02-24T02:47:11.070Z,4.47
2019-02-24T02:48:13.827Z,4.20
2019-02-24T02:49:18.316Z,4.15
2019-02-24T02:50:23.855Z,4.00
2019-02-24T02:51:26.880Z,4.00
2019-02-24T02:52:29.541Z,3.75
2019-02-24T02:53:33.565Z,4.35
2019-02-24T02:54:36.131Z,4.00
2019-02-24T02:55:38.835Z,3.45
2019-02-24T02:56:41.914Z,4.65
2019-02-24T02:57:44.455Z,4.03
2019-02-24T02:58:53.860Z,4.37
2019-02-24T03:00:04.119Z,4.78
2019-02-24T03:01:06.631Z,5.37
2019-02-24T03:02:09.404Z,3.95
2019-02-24T03:03:12.013Z,4.03
2019-02-24T03:04:14.679Z,3.60
2019-02-24T03:05:17.181Z,4.30
2019-02-24T03:06:37.602Z,4.22
2019-02-24T03:07:44.118Z,4.20
2019-02-24T03:08:48.683Z,3.87
2019-02-24T03:09:51.479Z,4.62
2019-02-24T03:10:54.135Z,4.22
2019-02-24T03:11:56.666Z,3.95
2019-02-24T03:12:59.411Z,4.65
2019-02-24T03:14:02.031Z,4.50
2019-02-24T03:15:04.949Z,3.85
2019-02-24T03:16:07.677Z,4.60
2019-02-24T03:17:10.250Z,3.90
2019-02-24T03:18:13.566Z,3.33
2019-02-24T03:19:16.126Z,3.72
2019-02-24T03:20:18.947Z,3.95
2019-02-24T03:21:34.290Z,5.05
2019-02-24T03:22:36.934Z,3.58
2019-02-24T03:23:39.508Z,4.10
2019-02-24T03:24:42.363Z,4.20
2019-02-24T03:27:12.266Z,3.85
2019-02-24T03:28:17.387Z,4.25
2019-02-24T03:29:21.524Z,3.50
2019-02-24T03:30:24.786Z,4.72
2019-02-24T03:31:32.340Z,3.25
2019-02-24T03:32:35.057Z,3.75
2019-02-24T03:33:47.418Z,3.83
2019-02-24T03:35:54.793Z,3.12
2019-02-24T03:36:57.633Z,2.92
2019-02-24T03:38:08.092Z,3.77
2019-02-24T03:39:14.779Z,3.60
2019-02-24T03:40:18.060Z,3.25
2019-02-24T03:41:25.236Z,4.10
2019-02-24T03:42:34.376Z,3.65
2019-02-24T03:43:42.786Z,3.50
2019-02-24T03:44:47.855Z,3.60
2019-02-24T03:45:53.028Z,3.15
2019-02-24T03:46:56.468Z,3.40
2019-02-24T03:48:03.959Z,3.22
2019-02-24T03:49:06.844Z,3.05
2019-02-24T03:50:12.324Z,3.45
2019-02-24T03:51:15.363Z,3.40
2019-02-24T03:52:18.465Z,3.62
2019-02-24T03:53:21.606Z,3.58
2019-02-24T03:54:32.520Z,3.58
2019-02-24T03:55:35.263Z,3.27
2019-02-24T03:56:38.305Z,3.35
2019-02-24T03:57:41.089Z,3.05
2019-02-24T03:58:43.963Z,3.62
2019-02-24T03:59:46.783Z,2.98
2019-02-24T04:00:51.157Z,3.55
2019-02-24T04:01:53.696Z,3.95
2019-02-24T04:02:56.202Z,3.92
2019-02-24T04:03:58.848Z,3.75
2019-02-24T04:05:01.613Z,3.58
2019-02-24T04:06:04.170Z,3.60
2019-02-24T04:07:06.857Z,3.17
2019-02-24T04:08:09.425Z,3.55
2019-02-24T04:09:12.147Z,2.95
2019-02-24T04:10:14.678Z,3.60
2019-02-24T04:11:19.160Z,3.37
2019-02-24T04:12:21.949Z,3.08
2019-02-24T04:13:24.460Z,3.20
2019-02-24T04:14:27.365Z,3.17
2019-02-24T04:15:30.113Z,2.95
2019-02-24T04:16:32.730Z,3.15
2019-02-24T04:17:35.316Z,3.20
2019-02-24T04:18:38.945Z,3.10
2019-02-24T04:19:41.534Z,2.65
2019-02-24T04:20:44.282Z,3.75
2019-02-24T04:21:47.069Z,3.15
2019-02-24T04:22:49.694Z,2.80
2019-02-24T04:23:52.210Z,3.65
2019-02-24T04:24:54.730Z,3.10
2019-02-24T04:25:57.273Z,3.02
2019-02-24T04:26:59.809Z,3.77
2019-02-24T04:28:02.351Z,3.37
2019-02-24T04:29:04.877Z,3.10
2019-02-24T04:30:07.882Z,2.90
2019-02-24T04:31:10.511Z,3.17
2019-02-24T04:32:13.377Z,3.52
2019-02-24T04:33:16.000Z,2.72
2019-02-24T04:34:19.927Z,2.95
2019-02-24T04:35:22.425Z,3.60
2019-02-24T04:36:25.096Z,3.27
2019-02-24T04:37:27.954Z,2.80
2019-02-24T04:38:30.611Z,3.22
2019-02-24T04:39:33.174Z,3.05
2019-02-24T04:40:35.723Z,3.50
2019-02-24T04:41:38.527Z,3.27
2019-02-24T04:42:41.103Z,2.98
2019-02-24T04:43:43.735Z,2.95
2019-02-24T04:44:46.433Z,3.20
2019-02-24T04:45:50.691Z,3.20
2019-02-24T04:46:53.444Z,2.83
2019-02-24T04:47:56.229Z,3.08
2019-02-24T04:48:58.757Z,3.67
2019-02-24T04:50:01.403Z,3.52
2019-02-24T04:51:03.959Z,3.20
2019-02-24T04:52:06.479Z,3.70
2019-02-24T04:53:09.022Z,2.50
2019-02-24T04:54:11.740Z,3.35
2019-02-24T04:55:14.373Z,2.98
2019-02-24T04:56:17.209Z,3.12
2019-02-24T04:57:19.751Z,2.85
2019-02-24T04:58:22.377Z,2.72
2019-02-24T04:59:34.612Z,3.12
2019-02-24T05:00:29.536Z,3.05
2019-02-24T05:01:32.198Z,2.92
2019-02-24T05:02:34.773Z,2.65
2019-02-24T05:03:37.754Z,3.27
2019-02-24T05:04:40.489Z,3.42
2019-02-24T05:05:43.021Z,3.17
2019-02-24T05:06:45.605Z,2.92
2019-02-24T05:07:48.124Z,2.80
2019-02-24T05:08:50.662Z,2.72
2019-02-24T05:09:53.203Z,3.05
2019-02-24T05:10:55.846Z,2.37
2019-02-24T05:11:58.531Z,2.60
2019-02-24T05:13:01.145Z,2.72
2019-02-24T05:14:03.739Z,2.72
2019-02-24T05:15:06.456Z,2.35
2019-02-24T05:16:09.180Z,3.02
2019-02-24T05:17:12.162Z,2.85
2019-02-24T05:18:14.713Z,3.58
2019-02-24T05:19:17.336Z,2.67
2019-02-24T05:20:20.006Z,2.62
2019-02-24T05:21:22.723Z,2.50
2019-02-24T05:22:25.404Z,2.92
2019-02-24T05:23:28.134Z,2.52
2019-02-24T05:24:30.756Z,2.80
2019-02-24T05:25:33.426Z,3.17
2019-02-24T05:26:36.037Z,2.95
2019-02-24T05:27:38.778Z,2.45
2019-02-24T05:28:41.358Z,2.40
2019-02-24T05:29:46.253Z,3.30
2019-02-24T05:30:48.825Z,3.27
2019-02-24T05:31:51.422Z,3.10
2019-02-24T05:32:53.962Z,2.90
2019-02-24T05:33:56.643Z,2.58
2019-02-24T05:34:59.277Z,2.75
2019-02-24T05:36:01.869Z,2.83
2019-02-24T05:37:04.417Z,3.65
2019-02-24T05:38:06.930Z,2.95
2019-02-24T05:39:09.490Z,3.20
2019-02-24T05:40:12.225Z,3.55
2019-02-24T05:41:15.086Z,2.65
2019-02-24T05:42:17.612Z,3.15
2019-02-24T05:43:20.231Z,3.52
2019-02-24T05:44:22.735Z,3.75
2019-02-24T05:45:25.589Z,2.40
2019-02-24T05:46:28.157Z,3.15
2019-02-24T05:47:30.845Z,3.20
2019-02-24T05:48:33.753Z,3.27
2019-02-24T05:49:36.646Z,3.00
2019-02-24T05:50:39.295Z,2.85
2019-02-24T05:51:41.949Z,3.27
2019-02-24T05:52:44.455Z,2.72
2019-02-24T05:53:47.131Z,2.75
2019-02-24T05:54:51.831Z,3.55
2019-02-24T05:55:54.224Z,3.15
2019-02-24T05:56:56.752Z,3.17
2019-02-24T05:57:59.371Z,2.70
2019-02-24T05:59:02.133Z,2.50
2019-02-24T06:00:05.242Z,2.67
2019-02-24T06:01:07.850Z,3.98
2019-02-24T06:02:10.590Z,3.12
2019-02-24T06:03:13.096Z,3.15
2019-02-24T06:04:15.879Z,2.65
2019-02-24T06:05:18.530Z,2.52
2019-02-24T06:06:21.375Z,3.20
2019-02-24T06:07:23.951Z,2.58
2019-02-24T06:08:26.717Z,3.33
2019-02-24T06:09:30.674Z,2.83
2019-02-24T06:10:33.358Z,2.83
2019-02-24T06:11:35.934Z,3.00
2019-02-24T06:12:38.662Z,3.22
2019-02-24T06:13:41.254Z,3.20
2019-02-24T06:14:43.809Z,3.22
2019-02-24T06:15:46.551Z,3.33
2019-02-24T06:16:49.427Z,2.62
2019-02-24T06:17:52.056Z,3.10
2019-02-24T06:18:54.558Z,3.20
2019-02-24T06:19:57.520Z,2.67
2019-02-24T06:21:00.119Z,3.25
2019-02-24T06:22:02.686Z,3.15
2019-02-24T06:23:05.239Z,3.25
2019-02-24T06:24:07.958Z,2.52
2019-02-24T06:25:10.506Z,3.15
2019-02-24T06:26:13.027Z,3.02
2019-02-24T06:27:15.587Z,3.17
2019-02-24T06:28:18.123Z,3.17
2019-02-24T06:29:20.918Z,3.10
2019-02-24T06:30:23.698Z,3.12
2019-02-24T06:31:26.552Z,3.20
2019-02-24T06:32:29.132Z,2.65
2019-02-24T06:33:31.814Z,3.60
2019-02-24T06:34:34.450Z,3.60
2019-02-24T06:35:37.405Z,2.87
2019-02-24T06:36:39.948Z,2.95
2019-02-24T06:37:42.680Z,2.70
2019-02-24T06:38:45.233Z,3.37
2019-02-24T06:39:47.717Z,3.17
2019-02-24T06:40:51.583Z,3.22
2019-02-24T06:41:54.206Z,3.10
2019-02-24T06:42:56.875Z,3.37
2019-02-24T06:43:59.542Z,3.17
2019-02-24T06:45:02.333Z,3.70
2019-02-24T06:46:05.002Z,2.70
2019-02-24T06:47:07.891Z,3.00
2019-02-24T06:48:10.786Z,2.80
2019-02-24T06:49:13.514Z,3.25
2019-02-24T06:50:16.384Z,2.92
2019-02-24T06:51:19.215Z,3.08
2019-02-24T06:52:24.034Z,3.50
2019-02-24T06:53:26.615Z,3.55
2019-02-24T06:54:29.253Z,3.10
2019-02-24T06:55:31.966Z,2.58
2019-02-24T06:56:34.702Z,2.92
2019-02-24T06:57:37.273Z,3.12
2019-02-24T06:58:39.801Z,2.65
2019-02-24T06:59:42.435Z,3.20
2019-02-24T07:00:46.262Z,3.02
2019-02-24T07:01:49.020Z,2.87
2019-02-24T07:02:51.666Z,2.60
2019-02-24T07:03:54.660Z,3.52
2019-02-24T07:04:57.284Z,2.95
2019-02-24T07:05:59.820Z,3.12
2019-02-24T07:07:02.372Z,2.52
2019-02-24T07:08:04.999Z,2.62
2019-02-24T07:09:07.830Z,2.72
2019-02-24T07:10:10.765Z,3.47
2019-02-24T07:11:13.284Z,3.45
2019-02-24T07:12:18.110Z,2.80
2019-02-24T07:13:20.723Z,2.58
2019-02-24T07:14:23.299Z,3.25
2019-02-24T07:15:27.069Z,3.02
2019-02-24T07:16:29.617Z,2.85
2019-02-24T07:17:32.270Z,2.75
2019-02-24T07:18:34.910Z,3.33
2019-02-24T07:19:37.720Z,2.92
2019-02-24T07:20:40.351Z,3.30
2019-02-24T07:21:43.122Z,2.90
2019-02-24T07:22:45.661Z,2.62
2019-02-24T07:23:48.372Z,3.50
2019-02-24T07:24:52.734Z,3.30
2019-02-24T07:25:55.387Z,2.47
2019-02-24T07:26:57.918Z,3.08
2019-02-24T07:28:00.694Z,2.77
2019-02-24T07:29:03.239Z,2.62
2019-02-24T07:30:07.023Z,2.87
2019-02-24T07:31:09.754Z,2.95
2019-02-24T07:32:12.487Z,2.65
2019-02-24T07:33:15.164Z,2.95
2019-02-24T07:34:17.819Z,3.10
2019-02-24T07:35:20.380Z,3.20
2019-02-24T07:36:23.033Z,2.52
2019-02-24T07:37:25.745Z,2.37
2019-02-24T07:38:28.276Z,3.37
2019-02-24T07:39:31.128Z,3.15
2019-02-24T07:40:33.920Z,2.52
2019-02-24T07:41:36.474Z,2.92
2019-02-24T07:42:39.023Z,2.50
2019-02-24T07:43:41.794Z,3.20
2019-02-24T07:44:44.341Z,3.00
2019-02-24T07:45:46.898Z,3.02
2019-02-24T07:46:49.580Z,2.83
2019-02-24T07:47:52.234Z,3.30
2019-02-24T07:48:54.972Z,2.67
2019-02-24T07:50:01.456Z,2.75
2019-02-24T07:51:04.014Z,3.00
2019-02-24T07:52:06.558Z,2.75
2019-02-24T07:53:09.298Z,2.52
2019-02-24T07:54:12.009Z,2.92
2019-02-24T07:55:14.745Z,3.05
2019-02-24T07:56:17.434Z,3.20
2019-02-24T07:57:39.399Z,2.92
2019-02-24T07:58:42.349Z,2.85
2019-02-24T07:59:45.203Z,3.40
2019-02-24T08:00:48.059Z,3.22
2019-02-24T08:01:50.723Z,2.60
2019-02-24T08:02:54.475Z,2.75
2019-02-24T08:03:57.147Z,2.62
2019-02-24T08:04:59.907Z,2.42
2019-02-24T08:06:04.399Z,2.60
2019-02-24T08:07:06.986Z,3.35
2019-02-24T08:08:16.243Z,2.55
2019-02-24T08:09:14.198Z,3.17
2019-02-24T08:10:16.973Z,3.17
2019-02-24T08:11:19.776Z,2.98
2019-02-24T08:12:23.093Z,2.58
2019-02-24T08:13:26.001Z,2.62
2019-02-24T08:14:28.543Z,2.92
2019-02-24T08:15:31.316Z,2.70
2019-02-24T08:16:33.873Z,2.98
2019-02-24T08:17:36.443Z,2.45
2019-02-24T08:18:39.616Z,2.95
2019-02-24T08:19:42.281Z,2.47
2019-02-24T08:20:44.818Z,2.80
2019-02-24T08:21:47.433Z,2.45
2019-02-24T08:22:52.042Z,2.85
2019-02-24T08:23:54.933Z,2.87
2019-02-24T08:24:57.762Z,2.90
2019-02-24T08:26:00.580Z,2.47
2019-02-24T08:27:03.231Z,2.87
2019-02-24T08:28:06.848Z,2.50
2019-02-24T08:29:09.424Z,2.25
2019-02-24T08:30:12.032Z,2.42
2019-02-24T08:31:14.782Z,2.92
2019-02-24T08:32:17.474Z,2.83
2019-02-24T08:33:20.262Z,2.98
2019-02-24T08:34:24.942Z,2.58
2019-02-24T08:35:27.496Z,2.75
2019-02-24T08:36:30.218Z,2.70
2019-02-24T08:37:33.109Z,2.27
2019-02-24T08:38:35.764Z,3.02
2019-02-24T08:39:38.442Z,2.80
2019-02-24T08:40:41.083Z,2.40
2019-02-24T08:41:43.812Z,2.70
2019-02-24T08:42:46.692Z,2.72
2019-02-24T08:43:49.646Z,2.87
2019-02-24T08:44:52.285Z,2.55
2019-02-24T08:45:54.977Z,2.62
2019-02-24T08:46:59.017Z,2.52
2019-02-24T08:48:01.551Z,2.30
2019-02-24T08:49:04.121Z,2.40
2019-02-24T08:50:07.463Z,2.35
2019-02-24T08:51:10.216Z,2.55
2019-02-24T08:52:12.827Z,2.20
2019-02-24T08:53:15.385Z,2.25
2019-02-24T08:54:18.128Z,2.12
2019-02-24T08:55:20.961Z,2.40
2019-02-24T08:56:23.523Z,2.52
2019-02-24T08:57:26.083Z,2.10
2019-02-24T08:58:28.622Z,2.40
2019-02-24T08:59:31.178Z,2.60
2019-02-24T09:00:33.945Z,2.70
2019-02-24T09:01:36.633Z,2.42
2019-02-24T09:02:39.184Z,2.60
2019-02-24T09:03:41.938Z,3.05
2019-02-24T09:04:44.567Z,2.70
2019-02-24T09:05:47.131Z,2.27
2019-02-24T09:06:49.798Z,2.50
2019-02-24T09:07:52.429Z,2.30
2019-02-24T09:08:55.026Z,2.58
2019-02-24T09:09:57.738Z,2.60
2019-02-24T09:11:00.398Z,2.98
2019-02-24T09:12:22.387Z,2.55
2019-02-24T09:13:25.082Z,2.00
2019-02-24T09:14:27.667Z,2.55
2019-02-24T09:15:30.247Z,2.30
2019-02-24T09:16:32.885Z,2.15
2019-02-24T09:17:36.995Z,2.25
2019-02-24T09:18:39.517Z,2.50
2019-02-24T09:19:42.090Z,2.33
2019-02-24T09:20:44.608Z,1.98
2019-02-24T09:21:47.254Z,2.37
2019-02-24T09:22:49.879Z,2.42
2019-02-24T09:23:52.501Z,2.33
2019-02-24T09:24:55.103Z,2.50
2019-02-24T09:25:57.666Z,2.52
2019-02-24T09:27:00.273Z,2.58
2019-02-24T09:28:03.041Z,2.42
2019-02-24T09:29:05.634Z,2.50
2019-02-24T09:30:08.702Z,2.52
2019-02-24T09:31:11.301Z,2.17
2019-02-24T09:32:13.858Z,2.40
2019-02-24T09:33:16.539Z,2.30
2019-02-24T09:34:19.338Z,2.12
2019-02-24T09:35:21.922Z,2.47
2019-02-24T09:36:24.527Z,2.40
2019-02-24T09:37:27.199Z,2.52
2019-02-24T09:38:29.844Z,1.72
2019-02-24T09:39:32.388Z,2.45
2019-02-24T09:40:36.932Z,2.52
2019-02-24T09:41:39.625Z,2.17
2019-02-24T09:42:42.492Z,2.00
2019-02-24T09:43:45.189Z,2.42
2019-02-24T09:44:47.704Z,2.08
2019-02-24T09:45:50.462Z,2.67
2019-02-24T09:46:53.166Z,2.58
2019-02-24T09:47:55.693Z,2.65
2019-02-24T09:48:58.387Z,2.60
2019-02-24T09:50:01.163Z,2.55
2019-02-24T09:51:03.755Z,2.47
2019-02-24T09:52:08.275Z,2.52
2019-02-24T09:53:10.795Z,2.60
2019-02-24T09:54:13.342Z,2.33
2019-02-24T09:55:15.853Z,2.72
2019-02-24T09:56:18.614Z,2.70
2019-02-24T09:57:21.296Z,2.35
2019-02-24T09:58:23.881Z,2.50
2019-02-24T09:59:26.434Z,2.08
2019-02-24T10:00:29.010Z,2.20
2019-02-24T10:01:31.922Z,2.35
2019-02-24T10:02:34.499Z,2.20
2019-02-24T10:03:37.222Z,2.00
2019-02-24T10:04:40.185Z,2.33
2019-02-24T10:05:42.822Z,2.08
2019-02-24T10:06:45.453Z,2.52
2019-02-24T10:07:48.096Z,2.50
2019-02-24T10:08:50.809Z,2.10
2019-02-24T10:09:53.493Z,2.15
2019-02-24T10:10:56.107Z,2.20
2019-02-24T10:11:58.675Z,2.70
2019-02-24T10:13:02.377Z,2.05
2019-02-24T10:14:05.102Z,1.95
2019-02-24T10:15:09.696Z,2.22
2019-02-24T10:16:12.607Z,2.33
2019-02-24T10:17:15.279Z,2.08
2019-02-24T10:18:17.954Z,1.85
2019-02-24T10:19:20.595Z,2.05
2019-02-24T10:20:23.361Z,1.57
2019-02-24T10:21:26.103Z,1.87
2019-02-24T10:22:28.854Z,2.17
2019-02-24T10:23:31.451Z,2.17
2019-02-24T10:24:35.399Z,2.00
2019-02-24T10:25:38.229Z,2.37
2019-02-24T10:26:40.794Z,2.55
2019-02-24T10:27:43.363Z,2.50
2019-02-24T10:28:47.702Z,2.10
2019-02-24T10:29:50.593Z,2.37
2019-02-24T10:30:53.398Z,1.90
2019-02-24T10:31:56.018Z,2.05
2019-02-24T10:32:58.593Z,2.10
2019-02-24T10:34:01.156Z,2.22
2019-02-24T10:35:03.897Z,1.92
2019-02-24T10:36:09.260Z,2.10
2019-02-24T10:37:11.842Z,2.12
2019-02-24T10:38:14.661Z,2.35
2019-02-24T10:39:17.453Z,1.60
2019-02-24T10:40:20.236Z,2.25
2019-02-24T10:41:22.957Z,2.00
2019-02-24T10:42:25.732Z,2.00
2019-02-24T10:43:28.366Z,1.87
2019-02-24T10:44:31.371Z,1.60
2019-02-24T10:45:34.026Z,1.85
2019-02-24T10:46:36.762Z,1.85
2019-02-24T10:47:39.302Z,1.95
2019-02-24T10:49:40.134Z,1.42
2019-02-24T10:50:42.862Z,1.45
2019-02-24T10:51:45.637Z,1.62
2019-02-24T10:52:49.331Z,1.12
2019-02-24T10:53:51.885Z,1.37
2019-02-24T10:54:54.648Z,1.77
2019-02-24T10:55:57.202Z,1.17
2019-02-24T10:57:00.025Z,1.60
2019-02-24T10:58:02.675Z,1.47
2019-02-24T10:59:05.232Z,1.37
2019-02-24T11:00:10.636Z,1.37
2019-02-24T11:01:13.182Z,2.30
2019-02-24T11:02:15.760Z,2.05
2019-02-24T11:03:18.534Z,1.67
2019-02-24T11:04:21.409Z,1.52
2019-02-24T11:05:23.996Z,1.60
2019-02-24T11:06:26.681Z,1.87
2019-02-24T11:07:29.352Z,1.60
2019-02-24T11:08:32.025Z,1.55
2019-02-24T11:09:34.585Z,1.45
2019-02-24T11:10:37.323Z,1.65
2019-02-24T11:11:39.844Z,1.50
2019-02-24T11:12:42.413Z,1.60
2019-02-24T11:13:45.055Z,1.20
2019-02-24T11:14:47.616Z,1.72
2019-02-24T11:15:50.138Z,1.87
2019-02-24T11:16:52.715Z,1.90
2019-02-24T11:17:55.289Z,1.60
2019-02-24T11:18:57.918Z,1.82
2019-02-24T11:20:00.557Z,1.50
2019-02-24T11:21:03.084Z,1.75
2019-02-24T11:22:05.638Z,1.40
2019-02-24T11:23:08.383Z,1.50
2019-02-24T11:24:11.053Z,1.47
2019-02-24T11:25:13.594Z,1.42
2019-02-24T11:26:16.152Z,1.90
2019-02-24T11:27:18.723Z,1.72
2019-02-24T11:28:21.354Z,1.35
2019-02-24T11:29:23.910Z,1.57
2019-02-24T11:30:26.559Z,1.72
2019-02-24T11:31:38.006Z,1.50
2019-02-24T11:32:33.745Z,1.57
2019-02-24T11:33:36.415Z,1.57
2019-02-24T11:34:40.733Z,1.60
2019-02-24T11:35:43.279Z,1.32
2019-02-24T11:36:45.871Z,1.52
2019-02-24T11:37:48.439Z,1.75
2019-02-24T11:39:10.868Z,1.30
2019-02-24T11:40:13.550Z,1.60
2019-02-24T11:41:17.214Z,1.30
2019-02-24T11:42:20.005Z,1.67
2019-02-24T11:43:23.708Z,1.10
2019-02-24T11:44:28.178Z,1.40
2019-02-24T11:45:30.719Z,1.52
2019-02-24T11:46:33.319Z,1.02
2019-02-24T11:47:36.222Z,1.40
2019-02-24T11:48:40.825Z,1.72
2019-02-24T11:49:43.585Z,1.60
2019-02-24T11:50:47.924Z,2.00
2019-02-24T11:51:50.534Z,1.32
2019-02-24T11:52:53.182Z,1.75
2019-02-24T11:53:55.908Z,1.75
2019-02-24T11:54:58.721Z,2.10
2019-02-24T11:56:02.475Z,2.20
2019-02-24T11:57:05.076Z,2.12
2019-02-24T11:58:07.777Z,1.90
2019-02-24T11:59:10.673Z,1.60
2019-02-24T12:00:14.142Z,1.42
2019-02-24T12:01:17.010Z,1.50
2019-02-24T12:02:21.592Z,1.27
2019-02-24T12:03:25.470Z,1.27
2019-02-24T12:04:28.151Z,1.22
2019-02-24T12:05:31.076Z,1.10
2019-02-24T12:06:36.678Z,1.20
2019-02-24T12:07:39.249Z,1.55
2019-02-24T12:08:42.047Z,1.50
2019-02-24T12:09:44.722Z,1.20
2019-02-24T12:10:47.335Z,1.00
2019-02-24T12:11:50.049Z,1.45
2019-02-24T12:13:00.573Z,1.52
2019-02-24T12:14:03.090Z,1.42
2019-02-24T12:15:07.155Z,1.30
2019-02-24T12:16:09.709Z,1.12
2019-02-24T12:17:12.271Z,1.25
2019-02-24T12:18:14.817Z,1.25
2019-02-24T12:19:17.783Z,1.50
2019-02-24T12:20:20.365Z,1.52
2019-02-24T12:21:22.954Z,1.15
2019-02-24T12:22:25.973Z,1.25
2019-02-24T12:23:28.620Z,1.30
2019-02-24T12:24:31.291Z,1.50
2019-02-24T12:25:34.177Z,1.50
2019-02-24T12:26:36.960Z,1.70
2019-02-24T12:27:39.641Z,1.05
2019-02-24T12:28:42.178Z,1.15
2019-02-24T12:29:44.824Z,1.02
2019-02-24T12:30:47.433Z,1.12
2019-02-24T12:31:56.397Z,1.27
2019-02-24T12:32:54.652Z,1.40
2019-02-24T12:33:57.261Z,1.15
2019-02-24T12:34:59.874Z,1.40
2019-02-24T12:36:02.990Z,1.45
2019-02-24T12:37:05.969Z,1.55
2019-02-24T12:38:08.640Z,1.42
2019-02-24T12:39:11.521Z,1.62
2019-02-24T12:40:14.621Z,1.42
2019-02-24T12:41:17.639Z,1.30
2019-02-24T12:42:21.510Z,1.75
2019-02-24T12:43:24.136Z,1.35
2019-02-24T12:44:27.032Z,1.20
2019-02-24T12:45:29.952Z,1.42
2019-02-24T12:46:32.921Z,1.10
2019-02-24T12:47:36.155Z,1.35
2019-02-24T12:48:38.951Z,1.20
2019-02-24T12:49:42.283Z,1.30
2019-02-24T12:50:45.325Z,1.02
2019-02-24T12:51:48.653Z,1.15
2019-02-24T12:52:51.838Z,1.20
2019-02-24T12:53:55.115Z,1.65
2019-02-24T12:54:58.173Z,1.12
2019-02-24T12:56:01.231Z,1.40
2019-02-24T12:57:04.225Z,1.10
2019-02-24T12:58:07.563Z,1.07
2019-02-24T12:59:13.173Z,1.20
2019-02-24T13:00:17.669Z,1.60
2019-02-24T13:01:23.752Z,1.30
2019-02-24T13:02:26.918Z,1.40
2019-02-24T13:03:29.621Z,1.90
2019-02-24T13:04:32.584Z,2.50
2019-02-24T13:05:35.849Z,1.60
2019-02-24T13:06:39.006Z,1.37
2019-02-24T13:07:41.781Z,1.40
2019-02-24T13:08:44.804Z,1.35
2019-02-24T13:09:47.731Z,1.15
2019-02-24T13:10:51.214Z,1.35
2019-02-24T13:11:55.179Z,1.27
2019-02-24T13:12:59.651Z,1.25
2019-02-24T13:14:04.952Z,1.40
2019-02-24T13:15:08.975Z,2.05
2019-02-24T13:16:12.215Z,1.20
2019-02-24T13:17:15.087Z,1.30
2019-02-24T13:18:18.015Z,1.37
2019-02-24T13:19:27.048Z,1.52
2019-02-24T13:20:31.449Z,1.50
2019-02-24T13:21:38.115Z,1.47
2019-02-24T13:22:41.657Z,1.60
2019-02-24T13:23:44.814Z,1.55
2019-02-24T13:24:48.660Z,1.40
2019-02-24T13:25:52.627Z,1.30
2019-02-24T13:26:56.229Z,1.52
2019-02-24T13:27:59.446Z,1.20
2019-02-24T13:29:02.243Z,2.22
2019-02-24T13:30:06.309Z,1.67
2019-02-24T13:31:09.222Z,1.30
2019-02-24T13:32:16.531Z,1.47
2019-02-24T13:33:20.348Z,1.30
2019-02-24T13:34:23.184Z,1.70
2019-02-24T13:35:26.510Z,1.52
2019-02-24T13:36:29.445Z,1.50
2019-02-24T13:37:32.578Z,1.67
2019-02-24T13:38:37.419Z,1.42
2019-02-24T13:39:40.566Z,1.02
2019-02-24T13:40:45.147Z,1.30
2019-02-24T13:41:48.319Z,1.35
2019-02-24T13:42:51.196Z,1.37
2019-02-24T13:43:54.214Z,1.20
2019-02-24T13:44:57.352Z,1.50
2019-02-24T13:46:00.334Z,1.17
2019-02-24T13:47:03.175Z,1.27
2019-02-24T13:48:08.157Z,1.30
2019-02-24T13:49:10.869Z,1.35
2019-02-24T13:50:14.662Z,1.57
2019-02-24T13:51:17.637Z,1.45
2019-02-24T13:52:20.745Z,1.22
2019-02-24T13:53:23.604Z,1.30
2019-02-24T13:54:26.357Z,1.40
2019-02-24T13:55:29.223Z,1.52
2019-02-24T13:56:32.023Z,1.80
2019-02-24T13:57:34.920Z,1.47
2019-02-24T13:58:37.543Z,1.45
2019-02-24T13:59:40.523Z,1.45
2019-02-24T14:00:43.329Z,1.00
2019-02-24T14:01:46.222Z,1.30
2019-02-24T14:02:49.132Z,1.30
2019-02-24T14:03:51.787Z,1.17